Sks Spey — LACI7 — position and weather

sailwx.info

Track history (hours):
 
Tides and Currents Weather Stations Pressure Air Temp Water Temp Dewpoint Dewpoint Depression Visibility Wind Speed Wind Dir Waves Ship Positions

Sks Spey

Last reported at 2017-Aug-23 00:15 UTC. Time now 2017-Sep-23 03:53 UTC.
Position N 18°14' W 063°40'.
Warning: this ship's position is 31 days out of date.

Length 274 m; draft 15.2 m.

Type: Tanker. MMSI: 258881000.

Date/timePositionNaut miles runAvg speedWind from/ knotsBaromVisibWave heightAir tempDewpointWater temp
2017-Aug-23 00:15N 18°14' W 063°40'414.8
2017-Aug-23 00:00N 18°11' W 063°37'815.2
2017-Aug-22 23:30N 18°06' W 063°31'714.9
2017-Aug-22 23:00N 18°00' W 063°26'814.5
2017-Aug-22 22:27N 17°54' W 063°21'714.2
2017-Aug-22 21:59N 17°49' W 063°16'613.4
2017-Aug-22 21:30N 17°44' W 063°12'713.6
2017-Aug-22 21:00N 17°39' W 063°07'13 1.5
2017-Aug-22 12:05N 17°27' W 063°01'3210.4
2017-Aug-22 09:03N 17°38' W 062°30'011.5
2017-Aug-22 09:01N 17°38' W 062°29'611.5
2017-Aug-22 08:31N 17°40' W 062°24'611.8
2017-Aug-22 08:01N 17°42' W 062°18'612.2
2017-Aug-22 07:31N 17°45' W 062°12'612.1
2017-Aug-22 07:01N 17°47' W 062°06'611.8
2017-Aug-22 06:31N 17°50' W 062°01'611.8
2017-Aug-22 06:00N 17°52' W 061°55'1211.7
2017-Aug-22 04:59N 17°50' W 061°43'611.9
2017-Aug-22 04:30N 17°48' W 061°37'612.0
2017-Aug-22 04:01N 17°46' W 061°31'612.1
2017-Aug-22 03:31N 17°44' W 061°25'612.2
2017-Aug-22 03:00N 17°43' W 061°19'612.1
2017-Aug-22 02:31N 17°41' W 061°13'612.0
2017-Aug-22 02:01N 17°39' W 061°07'  
Track history (hours):
 
Tides and Currents Weather Stations Pressure Air Temp Water Temp Dewpoint Dewpoint Depression Visibility Wind Speed Wind Dir Waves Ship Positions

Sks Spey

Last reported at 2017-Aug-23 00:15 UTC. Time now 2017-Sep-23 03:53 UTC.
Position N 18°14' W 063°40'.
Warning: this ship's position is 31 days out of date.

Length 274 m; draft 15.2 m.

Type: Tanker. MMSI: 258881000.

Date/timePositionNaut miles runAvg speedWind from/ knotsBaromVisibWave heightAir tempDewpointWater temp
2017-Aug-23 00:15N 18°14' W 063°40'414.8
2017-Aug-23 00:00N 18°11' W 063°37'815.2
2017-Aug-22 23:30N 18°06' W 063°31'714.9
2017-Aug-22 23:00N 18°00' W 063°26'814.5
2017-Aug-22 22:27N 17°54' W 063°21'714.2
2017-Aug-22 21:59N 17°49' W 063°16'613.4
2017-Aug-22 21:30N 17°44' W 063°12'713.6
2017-Aug-22 21:00N 17°39' W 063°07'13 1.5
2017-Aug-22 12:05N 17°27' W 063°01'3210.4
2017-Aug-22 09:03N 17°38' W 062°30'011.5
2017-Aug-22 09:01N 17°38' W 062°29'611.5
2017-Aug-22 08:31N 17°40' W 062°24'611.8
2017-Aug-22 08:01N 17°42' W 062°18'612.2
2017-Aug-22 07:31N 17°45' W 062°12'612.1
2017-Aug-22 07:01N 17°47' W 062°06'611.8
2017-Aug-22 06:31N 17°50' W 062°01'611.8
2017-Aug-22 06:00N 17°52' W 061°55'1211.7
2017-Aug-22 04:59N 17°50' W 061°43'611.9
2017-Aug-22 04:30N 17°48' W 061°37'612.0
2017-Aug-22 04:01N 17°46' W 061°31'612.1
2017-Aug-22 03:31N 17°44' W 061°25'612.2
2017-Aug-22 03:00N 17°43' W 061°19'612.1
2017-Aug-22 02:31N 17°41' W 061°13'612.0
2017-Aug-22 02:01N 17°39' W 061°07'  

Dump ship's entire track history